Flight Track Log - Related Links

Times and Time Zones

All times are in EDT time to prevent confusion due to time zone crossing. See the UAL3832 flight status page for this flight to view local times or setup timezone preferences in your user account.


Time Position Orientation Groundspeed Altitude Reporting Facility
EDT Latitude Longitude Course Direction KTS MPH feet Rate Location/Type
Thu 12:09:12 PM 42.9333 -78.7500 200° South 163 188 1,500  Level Buffalo TRACON
Thu 12:09:42 PM 42.9000 -78.7667 200° South 189 217 2,800 1,800 Climbing Buffalo TRACON
Thu 12:10:42 PM 42.8667 -78.7167 132° Southeast 262 302 4,200 1,792 Climbing Buffalo TRACON
Thu 12:10:59 PM 42.8700 -78.6908 80° East 258 297 5,100 2,805 Climbing Cleveland Center
Thu 12:11:59 PM 42.8683 -78.5947 91° East 271 312 7,800 2,400 Climbing Cleveland Center
Thu 12:12:59 PM 42.8644 -78.4956 93° East 279 321 9,900 1,300 Climbing Cleveland Center
Thu 12:13:59 PM 42.8603 -78.3767 93° East 285 328 10,400 1,100 Climbing Cleveland Center
Thu 12:14:59 PM 42.8556 -78.2467 93° East 317 365 12,100 1,700 Climbing Cleveland Center
Thu 12:15:59 PM 42.8486 -78.1167 94° East 333 383 13,800 1,700 Climbing Cleveland Center
Thu 12:16:59 PM 42.8436 -77.9836 93° East 345 397 15,500 1,700 Climbing Cleveland Center
Thu 12:17:59 PM 42.8386 -77.8508 93° East 345 397 17,200 1,500 Climbing Cleveland Center
Thu 12:18:59 PM 42.8353 -77.7178 92° East 345 397 18,500 1,350 Climbing Cleveland Center
Thu 12:19:59 PM 42.8319 -77.5850 92° East 345 397 19,900 1,300 Climbing Cleveland Center
Thu 12:20:59 PM 42.8281 -77.4436 92° East 350 403 21,100 925 Climbing Cleveland Center
Thu 12:23:20 PM 42.8233 -77.1147 91° East 388 447 23,000 535 Climbing Boston Center
Thu 12:24:32 PM 42.8047 -76.9575 99° East 372 428 23,000  Level Boston Center
Thu 12:25:32 PM 42.7550 -76.8406 120° Southeast 348 400 23,000  Level Boston Center
Thu 12:26:32 PM 42.7053 -76.7269 121° Southeast 348 400 23,000  Level Boston Center
Thu 12:27:32 PM 42.6533 -76.6103 121° Southeast 359 413 23,000  Level Boston Center
Thu 12:28:32 PM 42.5992 -76.4936 122° Southeast 359 413 23,000  Level Boston Center
Thu 12:29:32 PM 42.5469 -76.3775 121° Southeast 359 413 23,000  Level Boston Center
Thu 12:30:32 PM 42.4944 -76.2617 122° Southeast 359 413 23,000  Level Boston Center
Thu 12:31:32 PM 42.4364 -76.1258 120° Southeast 359 413 23,000 -550 Level Boston Center
Thu 12:32:32 PM 42.3797 -76.0044 122° Southeast 377 434 21,900 -1,150 Descending Boston Center
Thu 12:33:32 PM 42.3272 -75.8861 121° Southeast 377 434 20,700 -1,200 Descending Boston Center
Thu 12:34:32 PM 42.2761 -75.7822 124° Southeast 363 418 19,500 -1,150 Descending Boston Center
Thu 12:35:32 PM 42.2231 -75.6672 122° Southeast 356 410 18,400 -800 Descending Boston Center
Thu 12:36:32 PM 42.1781 -75.5669 121° Southeast 346 398 17,900 -200 Descending Boston Center
Thu 12:37:32 PM 42.1367 -75.4808 123° Southeast 302 348 18,000 50 Climbing Boston Center
Thu 12:38:32 PM 42.1011 -75.4008 121° Southeast 272 313 18,000  Level Boston Center
Thu 12:39:32 PM 42.0617 -75.3206 123° Southeast 262 302 18,000  Level Boston Center
Thu 12:40:32 PM 42.0303 -75.2353 116° Southeast 256 295 18,000  Level Boston Center
Thu 12:41:32 PM 41.9994 -75.1389 113° Southeast 263 303 18,000  Level Boston Center
Thu 12:42:32 PM 41.9658 -75.0592 120° Southeast 263 303 18,000  Level Boston Center
Thu 12:43:32 PM 41.9422 -74.9969 117° Southeast 263 303 18,000  Level Boston Center
Thu 12:44:32 PM 41.9008 -74.8864 117° Southeast 258 297 18,000 -200 Level Boston Center
Thu 12:45:32 PM 41.8711 -74.8128 118° Southeast 258 297 17,600 -900 Descending Boston Center
Thu 12:46:32 PM 41.8375 -74.7222 116° Southeast 253 291 16,200 -1,400 Descending Boston Center
Thu 12:47:32 PM 41.8097 -74.6489 117° Southeast 247 284 14,800 -1,550 Descending Boston Center
Thu 12:48:32 PM 41.7761 -74.5614 117° Southeast 247 284 13,100 -900 Descending Boston Center
Thu 12:49:32 PM 41.7461 -74.4853 118° Southeast 247 284 13,000 -150 Descending Boston Center
Thu 12:50:32 PM 41.7122 -74.3981 117° Southeast 247 284 12,800 -700 Descending Boston Center
Thu 12:51:32 PM 41.6825 -74.3219 118° Southeast 253 291 11,600 -900 Descending Boston Center
Thu 12:52:32 PM 41.6692 -74.2381 102° East 226 260 11,000 -300 Descending Boston Center
Thu 12:53:32 PM 41.7231 -74.2508 350° North 147 169 11,000  Level Boston Center
Thu 12:54:32 PM 41.7892 -74.2944 334° Northwest 202 232 11,000  Level Boston Center
Thu 12:55:32 PM 41.8406 -74.3350 330° Northwest 236 272 11,000 -333 Level Boston Center
Thu 12:57:32 PM 41.7689 -74.3803 205° Southwest 164 189 10,000 -700 Descending Boston Center
Thu 12:58:32 PM 41.7072 -74.3339 151° Southeast 214 246 8,900 -1,000 Descending Boston Center
Thu 12:59:32 PM 41.6514 -74.3044 158° South 229 264 8,000 -850 Descending Boston Center
Thu 01:00:32 PM 41.5886 -74.3164 188° South 224 258 7,200 -500 Descending Boston Center
Thu 01:01:32 PM 41.5278 -74.3422 198° South 231 266 7,000 -66 Descending Boston Center
Thu 01:03:34 PM 41.4000 -74.4000 199° South 234 269 7,000  Level New York TRACON
Thu 01:04:28 PM 41.3500 -74.4167 194° South 239 275 7,000 53 Level New York TRACON
Thu 01:05:28 PM 41.2833 -74.4500 201° Southwest 232 267 7,100  Climbing New York TRACON
Thu 01:06:28 PM 41.2167 -74.4667 191° South 239 275 7,000 -150 Descending New York TRACON
Thu 01:07:28 PM 41.1500 -74.4833 191° South 241 277 6,800 -500 Descending New York TRACON
Thu 01:08:28 PM 41.0833 -74.5000 191° South 232 267 6,000 -350 Descending New York TRACON
Thu 01:09:28 PM 41.0333 -74.4833 166° South 216 249 6,100 -400 Climbing New York TRACON
Thu 01:10:28 PM 41.0167 -74.4167 108° East 205 236 5,200 -550 Descending New York TRACON
Thu 01:11:28 PM 41.0000 -74.3333 105° East 216 249 5,000 -400 Descending New York TRACON
Thu 01:12:28 PM 40.9833 -74.2667 108° East 211 243 4,400 -500 Descending New York TRACON
Thu 01:13:28 PM 40.9500 -74.2000 123° Southeast 210 242 4,000 -158 Descending New York TRACON
Thu 01:14:22 PM 40.9000 -74.1667 153° Southeast 211 243 4,100 -263 Climbing New York TRACON
Thu 01:15:22 PM 40.8667 -74.1167 131° Southeast 210 242 3,500 -800 Descending New York TRACON
Thu 01:16:22 PM 40.8000 -74.1000 169° South 216 249 2,500 -1,000 Descending New York TRACON

Login

Don't have an account? Register now (free) for customized features, flight alerts, and more!